Date,TemperatureHighF,TemperatureAvgF,TemperatureLowF,DewpointHighF,DewpointAvgF,DewpointLowF,HumidityHigh,HumidityAvg,HumidityLow,PressureMaxIn,PressureMinIn,WindSpeedMaxMPH,WindSpeedAvgMPH,GustSpeedMaxMPH,PrecipitationSumIn
2013-7-1,86.6,70.9,56.4,49.6,41.0,31.6,54,36,18,29.72,29.62,11,0,11,0.00
2013-7-2,86.6,70.0,53.4,46.5,41.0,37.1,74,39,19,29.79,29.70,11,0,11,0.00
2013-7-3,90.0,73.5,57.4,47.3,42.5,38.3,61,37,18,29.76,29.55,7,0,7,0.00
2013-7-4,89.3,70.7,54.2,59.3,42.4,38.6,59,39,20,29.63,29.51,7,0,9,0.00
2013-7-5,80.6,67.6,59.0,45.8,43.3,35.2,60,43,20,29.62,29.52,5,0,5,0.00
2013-7-6,83.5,66.2,53.0,46.0,35.9,21.7,61,36,14,29.65,29.54,8,0,8,0.00
2013-7-7,87.0,67.9,49.9,41.6,31.4,20.0,53,28,12,29.72,29.60,9,1,10,0.00
2013-7-8,86.2,66.8,47.0,39.1,26.8,17.0,48,27,8,29.84,29.71,8,0,10,0.00
2013-7-9,83.9,68.7,50.4,47.8,32.0,23.6,48,28,13,29.88,29.79,9,0,9,0.00
2013-7-10,83.5,72.2,62.1,42.7,35.6,31.5,38,27,18,29.84,29.64,9,1,10,0.00
2013-7-11,69.0,63.5,56.9,51.6,43.9,35.4,74,50,38,29.73,29.65,6,0,9,0.00
2013-7-12,75.1,61.4,50.9,51.1,45.2,38.6,79,57,34,29.81,29.71,6,0,8,0.00
2013-7-13,77.0,62.9,47.3,48.1,41.6,34.6,78,49,26,29.86,29.75,8,0,11,0.01
2013-7-14,80.5,66.0,52.1,47.1,40.9,34.1,59,41,22,29.83,29.67,7,0,9,0.00
2013-7-15,83.0,65.5,50.2,48.0,40.6,30.1,77,43,25,29.73,29.59,11,1,13,0.00
2013-7-16,83.9,67.0,48.6,37.3,31.5,21.8,54,29,12,29.76,29.64,10,1,10,0.00
2013-7-17,80.0,61.9,39.5,31.9,19.1,1.4,57,25,3,29.91,29.75,12,1,12,0.00
2013-7-18,84.3,65.9,45.1,33.7,23.5,18.0,49,23,9,29.91,29.74,11,1,11,0.00
2013-7-19,83.7,68.2,52.1,45.6,33.9,21.3,47,30,14,29.79,29.63,9,1,9,0.00
2013-7-20,79.9,68.3,58.7,59.3,47.8,35.3,82,49,35,29.72,29.56,13,1,13,0.03
2013-7-21,69.3,61.5,55.4,59.7,56.0,50.8,96,83,59,29.76,29.58,13,0,14,0.79
2013-7-22,70.8,60.2,52.3,62.7,56.3,50.0,96,87,64,29.83,29.72,8,0,11,1.29
2013-7-23,74.9,61.2,49.9,61.5,53.9,48.8,97,79,50,29.88,29.77,8,0,8,0.01
2013-7-24,79.6,64.5,50.2,57.7,51.2,41.9,96,65,40,29.85,29.72,5,0,9,0.00
2013-7-25,82.7,67.1,50.3,52.8,47.4,42.7,83,53,29,29.88,29.76,6,0,9,0.02
2013-7-26,72.9,60.7,53.9,60.2,54.2,46.1,95,81,45,29.91,29.82,6,0,8,0.18
2013-7-27,77.0,63.1,53.9,59.9,52.5,42.4,97,72,35,29.90,29.72,7,0,9,0.01
2013-7-28,78.9,62.4,47.9,51.5,45.0,34.8,84,56,28,29.75,29.62,7,0,8,0.00
2013-7-29,79.8,61.8,43.3,43.6,34.1,25.0,77,41,14,29.87,29.73,6,1,9,0.00
2013-7-30,80.9,64.8,47.9,47.3,41.8,34.9,76,47,21,29.90,29.81,8,1,10,0.00
2013-7-31,84.8,65.1,46.4,46.3,30.3,5.8,70,34,11,29.90,29.76,12,0,12,0.00